Time;durP1;ratioP1;P1;durP2;ratioP2;P2;SDS_P1;SDS_P2;PMS_P1;PMS_P2;Temp;Humidity;BMP_temperature;BMP_pressure;BME280_temperature;BME280_humidity;BME280_pressure;Samples;Min_cycle;Max_cycle;Signal;HPM_P1;HPM_P2
2022/05/19 00:01:41;;;;;;;;;;;;;;;10.09;61.60;101910.47;5164465;27;19915;-81
2022/05/19 00:04:06;;;;;;;;;;;;;;;10.12;61.69;101914.75;5151682;27;20074;-82
2022/05/19 00:06:34;;;;;;;;;;;;;;;10.07;61.97;101916.97;5114535;27;19920;-83
2022/05/19 00:09:02;;;;;;;;;;;;;;;9.91;62.77;101920.06;5110597;28;19920;-81
2022/05/19 00:11:28;;;;;;;;;;;;;;;10.01;62.58;101921.00;5148650;27;20026;-82
2022/05/19 00:13:54;;;;;;;;;;;;;;;10.05;62.49;101924.31;5133368;27;19923;-83
2022/05/19 00:16:19;;;;;;;;;;;;;;;10.05;62.80;101918.94;5139561;27;20038;-79
2022/05/19 00:18:45;;;;;;;;;;;;;;;10.10;62.95;101922.09;5114749;28;19927;-80
2022/05/19 00:21:11;;;;;;;;;;;;;;;10.05;63.33;101924.31;5130322;27;19924;-82
2022/05/19 00:23:37;;;;;;;;;;;;;;;10.11;63.38;101915.72;5122236;27;19919;-81
2022/05/19 00:26:02;;;;;;;;;;;;;;;10.17;63.30;101923.28;5114456;27;20504;-82
2022/05/19 00:28:28;;;;;;;;;;;;;;;10.16;63.60;101916.22;5122131;27;20359;-81
2022/05/19 00:30:54;;;;;;;;;;;;;;;10.19;63.57;101921.31;5129055;27;20454;-82
2022/05/19 00:33:24;;;;;;;;;;;;;;;10.20;63.62;101920.31;5150381;27;19925;-81
2022/05/19 00:35:50;;;;;;;;;;;;;;;10.10;64.15;101914.88;5111998;27;20359;-81
2022/05/19 00:38:16;;;;;;;;;;;;;;;10.06;64.22;101916.09;5128546;27;19962;-81
2022/05/19 00:40:49;;;;;;;;;;;;;;;10.15;64.01;101919.84;5125223;27;19924;-81
2022/05/19 00:43:15;;;;;;;;;;;;;;;10.21;64.06;101913.09;5117749;27;20378;-80
2022/05/19 00:45:51;;;;;;;;;;;;;;;10.21;64.03;101907.72;5143316;27;19920;-82
2022/05/19 00:48:24;;;;;;;;;;;;;;;10.17;64.33;101912.53;5121145;27;19933;-81
2022/05/19 00:50:51;;;;;;;;;;;;;;;10.26;64.16;101910.91;5122030;27;19957;-81
2022/05/19 00:53:22;;;;;;;;;;;;;;;10.17;64.39;101907.16;5097532;28;19958;-81
2022/05/19 00:55:48;;;;;;;;;;;;;;;10.28;64.20;101909.84;5138542;27;19915;-80
2022/05/19 00:58:15;;;;;;;;;;;;;;;10.30;64.06;101909.69;5148214;27;20433;-81
2022/05/19 01:00:41;;;;;;;;;;;;;;;10.26;64.27;101911.75;5139382;27;19935;-81
2022/05/19 01:03:06;;;;;;;;;;;;;;;10.42;63.66;101905.09;5135715;27;19963;-81
2022/05/19 01:05:36;;;;;;;;;;;;;;;10.33;63.98;101915.66;5142369;27;19927;-80
2022/05/19 01:08:14;;;;;;;;;;;;;;;10.37;63.80;101910.03;5137021;27;20432;-82
2022/05/19 01:10:41;;;;;;;;;;;;;;;10.31;64.05;101914.94;5130042;27;19930;-81
2022/05/19 01:13:12;;;;;;;;;;;;;;;10.37;64.09;101912.72;5125436;27;19930;-83
2022/05/19 01:15:39;;;;;;;;;;;;;;;10.31;64.13;101925.69;5144993;27;19923;-80
2022/05/19 01:18:06;;;;;;;;;;;;;;;10.40;63.85;101917.84;5101189;27;19919;-81
2022/05/19 01:20:34;;;;;;;;;;;;;;;10.40;63.86;101929.47;5139532;27;19918;-81
2022/05/19 01:23:06;;;;;;;;;;;;;;;10.50;63.62;101929.53;5132142;27;19922;-80
2022/05/19 01:25:50;;;;;;;;;;;;;;;10.45;63.93;101927.22;5144300;27;20330;-80
2022/05/19 01:28:16;;;;;;;;;;;;;;;10.44;63.99;101930.03;5139139;27;19925;-80
2022/05/19 01:30:42;;;;;;;;;;;;;;;10.41;64.26;101924.94;5115444;27;19919;-80
2022/05/19 01:33:09;;;;;;;;;;;;;;;10.51;63.98;101924.03;5159431;27;19988;-82
2022/05/19 01:35:36;;;;;;;;;;;;;;;10.54;63.86;101921.06;5129043;27;20024;-82
2022/05/19 01:38:03;;;;;;;;;;;;;;;10.53;63.93;101921.19;5125944;27;19919;-80
2022/05/19 01:40:41;;;;;;;;;;;;;;;10.48;64.00;101921.59;5125057;27;20073;-81
2022/05/19 01:43:21;;;;;;;;;;;;;;;10.52;63.95;101922.19;5128988;27;20311;-81
2022/05/19 01:46:05;;;;;;;;;;;;;;;10.59;63.49;101912.63;5137223;27;19919;-80
2022/05/19 01:48:45;;;;;;;;;;;;;;;10.59;63.70;101909.94;5147682;27;20023;-82
2022/05/19 01:51:15;;;;;;;;;;;;;;;10.51;64.07;101915.09;5136806;27;19921;-80
2022/05/19 01:53:58;;;;;;;;;;;;;;;10.60;63.97;101919.69;5119356;27;19923;-83
2022/05/19 01:56:49;;;;;;;;;;;;;;;10.56;64.10;101918.25;5113982;27;19926;-81
2022/05/19 01:59:35;;;;;;;;;;;;;;;10.50;64.47;101921.47;5101150;27;19919;-82
2022/05/19 02:02:08;;;;;;;;;;;;;;;10.47;64.54;101921.72;5097082;28;19924;-82
2022/05/19 02:05:04;;;;;;;;;;;;;;;10.46;64.76;101917.31;5139359;27;19975;-81
2022/05/19 02:07:32;;;;;;;;;;;;;;;10.48;64.67;101926.13;5131888;27;19919;-80
2022/05/19 02:10:03;;;;;;;;;;;;;;;10.48;64.85;101918.03;5107547;27;20391;-80
2022/05/19 02:12:33;;;;;;;;;;;;;;;10.39;65.23;101922.34;5129746;27;19919;-80
2022/05/19 02:15:00;;;;;;;;;;;;;;;10.35;65.25;101921.78;5123975;27;19935;-82
2022/05/19 02:17:28;;;;;;;;;;;;;;;10.49;64.96;101919.78;5103689;27;19916;-80
2022/05/19 02:19:55;;;;;;;;;;;;;;;10.45;65.11;101921.00;5125981;27;19926;-83
2022/05/19 02:22:24;;;;;;;;;;;;;;;10.47;65.22;101924.41;5132353;27;19933;-83
2022/05/19 02:24:59;;;;;;;;;;;;;;;10.46;65.22;101926.22;5124925;27;20301;-82
2022/05/19 02:27:32;;;;;;;;;;;;;;;10.39;65.49;101926.88;5114579;27;20063;-83
2022/05/19 02:30:01;;;;;;;;;;;;;;;10.39;65.79;101926.88;5117399;27;19915;-81
2022/05/19 02:32:27;;;;;;;;;;;;;;;10.44;65.68;101921.97;5095836;27;20274;-83
2022/05/19 02:34:54;;;;;;;;;;;;;;;10.42;65.82;101926.63;5116697;27;19923;-81
2022/05/19 02:37:22;;;;;;;;;;;;;;;10.39;66.02;101926.88;5113850;27;20443;-81
2022/05/19 02:39:51;;;;;;;;;;;;;;;10.38;65.95;101925.19;5135720;27;19937;-83
2022/05/19 02:42:17;;;;;;;;;;;;;;;10.40;66.23;101925.91;5133402;27;19919;-84
2022/05/19 02:44:44;;;;;;;;;;;;;;;10.30;66.50;101929.38;5121544;27;19987;-84
2022/05/19 02:47:11;;;;;;;;;;;;;;;10.42;66.21;101927.50;5117230;27;19926;-83
2022/05/19 02:49:36;;;;;;;;;;;;;;;10.39;66.33;101927.72;5101690;27;19931;-83
2022/05/19 02:52:04;;;;;;;;;;;;;;;10.42;66.23;101932.00;5133458;27;19919;-81
2022/05/19 02:54:29;;;;;;;;;;;;;;;10.47;66.07;101932.47;5121760;27;19916;-81
2022/05/19 02:56:59;;;;;;;;;;;;;;;10.49;66.14;101936.75;5133743;27;19923;-81
2022/05/19 02:59:26;;;;;;;;;;;;;;;10.60;65.67;101935.81;5105613;27;19919;-82
2022/05/19 03:01:52;;;;;;;;;;;;;;;10.58;65.79;101932.41;5135294;27;19926;-84
2022/05/19 03:04:17;;;;;;;;;;;;;;;10.57;65.91;101936.09;5152179;27;19920;-81
2022/05/19 03:06:44;;;;;;;;;;;;;;;10.69;65.52;101944.97;5132165;27;19916;-83
2022/05/19 03:09:10;;;;;;;;;;;;;;;10.77;65.38;101947.88;5136159;27;19924;-83
2022/05/19 03:11:41;;;;;;;;;;;;;;;10.66;65.55;101946.06;5095953;28;19919;-82
2022/05/19 03:14:06;;;;;;;;;;;;;;;10.68;65.40;101949.50;5152338;27;19919;-84
2022/05/19 03:16:32;;;;;;;;;;;;;;;10.76;65.23;101946.13;5117906;28;19943;-81
2022/05/19 03:18:57;;;;;;;;;;;;;;;10.81;65.02;101953.81;5103376;27;19945;-82
2022/05/19 03:21:27;;;;;;;;;;;;;;;10.90;64.60;101950.34;5100043;28;20318;-81
2022/05/19 03:23:53;;;;;;;;;;;;;;;10.91;64.54;101941.28;5102660;27;19918;-83
2022/05/19 03:26:22;;;;;;;;;;;;;;;10.89;64.94;101951.34;5136865;27;20334;-83
2022/05/19 03:28:48;;;;;;;;;;;;;;;10.83;64.97;101954.53;5117407;28;19927;-83
2022/05/19 03:31:13;;;;;;;;;;;;;;;11.07;64.04;101949.72;5126224;28;19927;-81
2022/05/19 03:33:39;;;;;;;;;;;;;;;11.09;63.87;101953.16;5113491;28;19919;-82
2022/05/19 03:36:04;;;;;;;;;;;;;;;11.13;63.69;101945.66;5111346;28;19923;-81
2022/05/19 03:38:31;;;;;;;;;;;;;;;11.17;63.57;101953.34;5120061;27;20356;-81
2022/05/19 03:40:58;;;;;;;;;;;;;;;11.28;62.94;101957.78;5115287;28;19927;-79
2022/05/19 03:43:27;;;;;;;;;;;;;;;11.37;62.58;101950.75;5120436;27;19927;-82
2022/05/19 03:45:54;;;;;;;;;;;;;;;11.44;62.14;101959.13;5119249;28;19919;-84
2022/05/19 03:48:22;;;;;;;;;;;;;;;11.56;62.02;101956.19;5116240;27;20384;-82
2022/05/19 03:50:51;;;;;;;;;;;;;;;11.44;62.05;101951.91;5117045;28;19928;-83
2022/05/19 03:53:17;;;;;;;;;;;;;;;11.48;62.11;101953.34;5085787;28;19927;-82
2022/05/19 03:55:44;;;;;;;;;;;;;;;11.66;61.54;101950.00;5121882;28;19916;-81
2022/05/19 03:58:11;;;;;;;;;;;;;;;11.65;61.51;101961.78;5138341;27;19929;-80
2022/05/19 04:00:36;;;;;;;;;;;;;;;11.82;60.85;101955.72;5134964;27;19959;-81
2022/05/19 04:03:04;;;;;;;;;;;;;;;11.73;61.17;101956.53;5118984;27;19926;-80
2022/05/19 04:05:32;;;;;;;;;;;;;;;11.94;60.30;101968.16;5146362;27;19915;-81
2022/05/19 04:07:57;;;;;;;;;;;;;;;12.06;59.45;101968.88;5102475;27;19915;-81
2022/05/19 04:10:29;;;;;;;;;;;;;;;12.18;59.32;101981.25;5123892;27;20066;-81
2022/05/19 04:12:54;;;;;;;;;;;;;;;12.31;58.59;101959.38;5112841;27;19955;-81
2022/05/19 04:15:19;;;;;;;;;;;;;;;12.42;58.51;101970.06;5134402;27;20426;-81
2022/05/19 04:17:46;;;;;;;;;;;;;;;12.40;58.66;101963.09;5117345;27;20009;-81
2022/05/19 04:20:13;;;;;;;;;;;;;;;12.48;58.68;101971.34;5119389;27;19920;-82
2022/05/19 04:22:39;;;;;;;;;;;;;;;12.54;58.93;101965.38;5115289;27;20011;-81
2022/05/19 04:25:08;;;;;;;;;;;;;;;12.65;58.85;101970.63;5123760;27;19963;-80
2022/05/19 04:27:44;;;;;;;;;;;;;;;12.67;58.52;101973.19;5100887;27;19926;-82
2022/05/19 04:30:11;;;;;;;;;;;;;;;12.85;58.50;101976.88;5124849;27;20025;-82
2022/05/19 04:32:37;;;;;;;;;;;;;;;13.08;58.21;101971.13;5114067;27;20090;-84
2022/05/19 04:35:02;;;;;;;;;;;;;;;13.32;57.57;101957.16;5115355;27;20023;-82
2022/05/19 04:37:30;;;;;;;;;;;;;;;13.45;56.89;101967.66;5106084;27;19978;-80
2022/05/19 04:39:58;;;;;;;;;;;;;;;13.66;56.53;101976.38;5111255;27;19919;-81
2022/05/19 04:42:24;;;;;;;;;;;;;;;13.84;56.25;101972.91;5091430;28;19926;-81
2022/05/19 04:44:52;;;;;;;;;;;;;;;14.00;56.07;101966.81;5120919;27;19919;-82
2022/05/19 04:47:22;;;;;;;;;;;;;;;14.24;54.76;101974.34;5130659;27;20010;-82
2022/05/19 04:49:47;;;;;;;;;;;;;;;14.27;54.39;101974.03;5120414;27;20390;-82
2022/05/19 04:52:15;;;;;;;;;;;;;;;14.48;54.10;101979.16;5098064;28;19977;-83
2022/05/19 04:54:41;;;;;;;;;;;;;;;14.69;53.39;101978.88;5113109;27;19994;-81
2022/05/19 04:57:07;;;;;;;;;;;;;;;14.80;52.47;101973.22;5108683;27;20436;-82
2022/05/19 04:59:39;;;;;;;;;;;;;;;14.89;51.81;101975.00;5096262;28;19928;-81
2022/05/19 05:02:06;;;;;;;;;;;;;;;15.09;51.29;101969.38;5090330;28;19927;-79
2022/05/19 05:04:32;;;;;;;;;;;;;;;15.36;50.49;101965.66;5115625;27;19927;-82
2022/05/19 05:06:58;;;;;;;;;;;;;;;15.57;49.79;101967.97;5121987;28;19920;-82
2022/05/19 05:09:23;;;;;;;;;;;;;;;15.68;50.31;101970.38;5114066;27;19924;-82
2022/05/19 05:11:52;;;;;;;;;;;;;;;15.78;49.51;101965.72;5113919;27;19998;-84
2022/05/19 05:14:18;;;;;;;;;;;;;;;16.12;48.44;101970.22;5114508;27;19920;-81
2022/05/19 05:16:46;;;;;;;;;;;;;;;16.38;47.47;101980.13;5144705;27;20425;-82
2022/05/19 05:19:12;;;;;;;;;;;;;;;16.50;46.56;101973.34;5147215;27;19923;-82
2022/05/19 05:21:43;;;;;;;;;;;;;;;16.60;46.64;101979.47;5128101;27;19927;-82
2022/05/19 05:24:08;;;;;;;;;;;;;;;16.86;46.98;101981.22;5117898;27;19919;-81
2022/05/19 05:26:34;;;;;;;;;;;;;;;17.06;45.57;101979.81;5132315;27;19921;-80
2022/05/19 05:28:59;;;;;;;;;;;;;;;17.28;45.41;101985.59;5111811;27;19915;-81
2022/05/19 05:31:25;;;;;;;;;;;;;;;17.28;45.02;101991.03;5113585;27;20311;-82
2022/05/19 05:34:14;;;;;;;;;;;;;;;17.69;43.87;101999.03;5134676;27;20317;-83
2022/05/19 05:36:40;;;;;;;;;;;;;;;17.72;43.21;101996.84;5131361;27;19955;-81
2022/05/19 05:39:13;;;;;;;;;;;;;;;17.96;44.49;102002.34;5133801;27;19975;-81
2022/05/19 05:41:41;;;;;;;;;;;;;;;18.07;42.35;102001.97;5136507;27;19934;-83
2022/05/19 05:44:09;;;;;;;;;;;;;;;18.04;41.83;101996.91;5102127;27;20010;-84
2022/05/19 05:46:37;;;;;;;;;;;;;;;18.24;41.11;101987.25;5115176;27;20389;-83
2022/05/19 05:49:03;;;;;;;;;;;;;;;18.30;40.84;101994.69;5123143;27;19919;-82
2022/05/19 05:51:28;;;;;;;;;;;;;;;18.24;40.22;101989.13;5100764;27;19920;-82
2022/05/19 05:53:56;;;;;;;;;;;;;;;18.07;40.41;101988.38;5110068;27;19916;-83
2022/05/19 05:56:44;;;;;;;;;;;;;;;18.10;39.83;101996.19;5118088;27;19930;-83
2022/05/19 05:59:13;;;;;;;;;;;;;;;18.37;39.57;101992.09;5130198;27;19963;-80
2022/05/19 06:01:40;;;;;;;;;;;;;;;18.45;40.06;101994.78;5097871;27;19923;-81
2022/05/19 06:04:09;;;;;;;;;;;;;;;18.42;38.87;101994.28;5116724;27;19920;-82
2022/05/19 06:06:45;;;;;;;;;;;;;;;18.69;37.78;101991.03;5140132;27;19919;-83
2022/05/19 06:09:31;;;;;;;;;;;;;;;18.72;37.75;102003.44;5136751;27;19919;-83
2022/05/19 06:12:22;;;;;;;;;;;;;;;18.95;37.36;101998.00;5152900;27;19923;-83
2022/05/19 06:14:59;;;;;;;;;;;;;;;19.10;36.26;102003.47;5138758;27;19926;-84
2022/05/19 06:17:30;;;;;;;;;;;;;;;19.14;37.13;102002.94;5144672;27;19915;-83
2022/05/19 06:20:16;;;;;;;;;;;;;;;19.27;36.36;102001.44;5120436;27;19919;-83
2022/05/19 06:22:43;;;;;;;;;;;;;;;19.26;36.20;102000.59;5129508;27;20371;-85
2022/05/19 06:25:14;;;;;;;;;;;;;;;19.42;36.46;102013.22;5094007;28;20007;-82
2022/05/19 06:27:41;;;;;;;;;;;;;;;19.48;36.03;102008.88;5108411;27;19924;-84
2022/05/19 06:30:09;;;;;;;;;;;;;;;19.68;35.94;102011.91;5119300;27;19911;-84
2022/05/19 06:32:35;;;;;;;;;;;;;;;19.99;35.45;102001.69;5115988;27;20391;-83
2022/05/19 06:35:01;;;;;;;;;;;;;;;20.12;35.03;102000.13;5094110;28;19920;-85
2022/05/19 06:37:31;;;;;;;;;;;;;;;20.13;34.80;102004.53;5132802;27;19926;-84
2022/05/19 06:39:57;;;;;;;;;;;;;;;20.26;34.26;102004.72;5130816;27;20417;-83
2022/05/19 06:42:24;;;;;;;;;;;;;;;20.63;33.81;102000.09;5112969;27;19935;-87
2022/05/19 06:44:53;;;;;;;;;;;;;;;20.80;33.35;102000.69;5101972;27;19931;-82
2022/05/19 06:47:20;;;;;;;;;;;;;;;20.85;33.20;102004.50;5109807;27;19943;-86
2022/05/19 06:49:52;;;;;;;;;;;;;;;21.14;31.89;102002.66;5130430;27;19944;-85
2022/05/19 06:52:19;;;;;;;;;;;;;;;21.41;32.14;102002.88;5128102;27;20464;-86
2022/05/19 06:54:45;;;;;;;;;;;;;;;21.51;31.14;102003.34;5107568;27;19934;-86
2022/05/19 06:57:15;;;;;;;;;;;;;;;21.62;31.10;102002.78;5129207;27;19919;-86
2022/05/19 06:59:44;;;;;;;;;;;;;;;21.93;30.89;101996.81;5116653;27;19920;-86
2022/05/19 07:02:11;;;;;;;;;;;;;;;21.97;29.91;102001.91;5106493;28;19930;-86
2022/05/19 07:04:39;;;;;;;;;;;;;;;21.77;30.33;101999.91;5131615;27;20014;-87
2022/05/19 07:07:04;;;;;;;;;;;;;;;21.61;31.32;102006.59;5140254;27;19926;-86
2022/05/19 07:09:30;;;;;;;;;;;;;;;21.76;31.31;101997.38;5126546;27;19951;-85
2022/05/19 07:11:56;;;;;;;;;;;;;;;22.05;30.94;102004.47;5130745;28;19923;-85
2022/05/19 07:14:23;;;;;;;;;;;;;;;21.98;31.48;102004.44;5129385;27;19924;-88
2022/05/19 07:16:49;;;;;;;;;;;;;;;21.94;31.38;102000.44;5119125;28;19920;-86
2022/05/19 07:22:00;;;;;;;;;;;;;;;22.38;29.71;101999.13;5095807;28;19965;-88
2022/05/19 07:24:25;;;;;;;;;;;;;;;22.40;30.12;102009.88;5128415;27;19923;-88
2022/05/19 07:26:51;;;;;;;;;;;;;;;22.43;30.32;101995.75;5140376;27;19923;-90
2022/05/19 07:29:18;;;;;;;;;;;;;;;22.03;30.10;101996.47;5139895;27;19919;-89
2022/05/19 07:31:43;;;;;;;;;;;;;;;21.88;29.91;102009.44;5096361;28;19923;-88
2022/05/19 07:34:10;;;;;;;;;;;;;;;22.13;29.40;102005.13;5102756;27;19919;-89
2022/05/19 07:36:35;;;;;;;;;;;;;;;22.32;28.96;102005.44;5120249;27;19922;-90
2022/05/19 07:39:02;;;;;;;;;;;;;;;22.57;29.10;102018.56;5142705;27;19923;-88
2022/05/19 07:41:30;;;;;;;;;;;;;;;22.67;28.18;102005.31;5119596;27;20040;-89
2022/05/19 07:43:57;;;;;;;;;;;;;;;22.89;28.26;102012.25;5124670;27;20371;-88
2022/05/19 07:46:24;;;;;;;;;;;;;;;23.18;28.22;102010.22;5125919;27;19917;-89
2022/05/19 07:48:50;;;;;;;;;;;;;;;23.57;28.42;102009.28;5127574;27;19919;-89
2022/05/19 07:51:15;;;;;;;;;;;;;;;23.66;28.11;102012.63;5129377;27;19942;-89
2022/05/19 07:53:41;;;;;;;;;;;;;;;24.12;27.45;102005.34;5128183;27;19919;-88
2022/05/19 07:56:07;;;;;;;;;;;;;;;24.38;27.43;102004.34;5165748;27;19955;-89
2022/05/19 07:58:33;;;;;;;;;;;;;;;24.61;26.94;101998.31;5124305;27;20383;-88
2022/05/19 08:01:00;;;;;;;;;;;;;;;24.09;27.52;102001.13;5133468;27;19919;-90
2022/05/19 08:03:25;;;;;;;;;;;;;;;24.37;26.13;102000.75;5139237;27;19919;-89
2022/05/19 08:05:52;;;;;;;;;;;;;;;24.32;26.60;101997.81;5101876;28;19947;-90
2022/05/19 08:08:17;;;;;;;;;;;;;;;24.78;26.00;102004.09;5115678;28;19900;-90
2022/05/19 08:10:43;;;;;;;;;;;;;;;25.23;25.60;102001.22;5113263;27;20452;-89
2022/05/19 08:15:54;;;;;;;;;;;;;;;25.11;24.90;102003.81;5105770;28;19923;-90
2022/05/19 08:18:21;;;;;;;;;;;;;;;25.26;25.36;102004.38;5133865;28;19922;-92
2022/05/19 08:20:57;;;;;;;;;;;;;;;25.10;26.13;102002.16;5137095;27;20003;-89
2022/05/19 08:23:33;;;;;;;;;;;;;;;25.39;25.28;102003.38;5103689;27;19915;-87
2022/05/19 08:25:58;;;;;;;;;;;;;;;25.83;25.19;102017.94;5103690;28;20097;-90
2022/05/19 08:28:29;;;;;;;;;;;;;;;25.77;23.99;102018.84;5106175;27;20022;-89
2022/05/19 08:30:56;;;;;;;;;;;;;;;25.44;23.85;102003.53;5127211;27;19919;-89
2022/05/19 08:33:21;;;;;;;;;;;;;;;25.58;23.87;102011.66;5124660;27;19959;-91
2022/05/19 08:35:47;;;;;;;;;;;;;;;26.00;24.01;102006.31;5127538;27;19973;-89
2022/05/19 08:38:12;;;;;;;;;;;;;;;26.53;23.30;101995.41;5115823;27;20386;-90
2022/05/19 08:41:04;;;;;;;;;;;;;;;27.09;22.41;102009.81;5127215;27;19915;-88
2022/05/19 08:43:32;;;;;;;;;;;;;;;27.46;22.21;102008.75;5125837;27;20509;-87
2022/05/19 08:45:58;;;;;;;;;;;;;;;27.07;22.44;101989.03;5103833;28;19923;-90
2022/05/19 08:48:25;;;;;;;;;;;;;;;26.38;23.90;102003.25;5109130;27;20418;-91
2022/05/19 08:50:54;;;;;;;;;;;;;;;25.75;24.91;101993.44;5104400;28;19966;-90
2022/05/19 08:53:20;;;;;;;;;;;;;;;26.82;23.42;101992.84;5108151;27;19923;-91
2022/05/19 08:55:47;;;;;;;;;;;;;;;27.08;22.67;101996.22;5120968;27;19973;-90
2022/05/19 08:58:15;;;;;;;;;;;;;;;26.32;22.97;101988.50;5101703;27;19934;-90
2022/05/19 09:00:42;;;;;;;;;;;;;;;25.99;22.94;101993.59;5117578;27;20081;-91
2022/05/19 09:03:17;;;;;;;;;;;;;;;25.44;23.32;101987.00;5110082;27;19934;-90
2022/05/19 09:05:46;;;;;;;;;;;;;;;25.51;24.01;101992.44;5119221;28;19932;-89
2022/05/19 09:08:17;;;;;;;;;;;;;;;26.58;22.89;101991.97;5123832;28;19939;-91
2022/05/19 09:11:01;;;;;;;;;;;;;;;27.56;21.78;102003.47;5135175;28;19920;-90
2022/05/19 09:13:26;;;;;;;;;;;;;;;27.89;21.05;101989.00;5121150;27;19919;-89
2022/05/19 09:15:52;;;;;;;;;;;;;;;28.37;20.03;101981.34;5133500;27;20352;-90
2022/05/19 09:18:20;;;;;;;;;;;;;;;28.42;20.38;101985.06;5134400;28;19950;-89
2022/05/19 09:20:50;;;;;;;;;;;;;;;28.73;20.14;101987.53;5128963;28;19920;-90
2022/05/19 09:23:16;;;;;;;;;;;;;;;29.76;18.99;101987.16;5121842;27;20008;-90
2022/05/19 09:25:47;;;;;;;;;;;;;;;30.45;18.77;101981.03;5105026;28;20037;-90
2022/05/19 09:28:16;;;;;;;;;;;;;;;31.11;18.04;101980.78;5115295;27;19927;-88
2022/05/19 09:30:49;;;;;;;;;;;;;;;30.79;18.47;101984.41;5109585;27;19926;-89
2022/05/19 09:33:15;;;;;;;;;;;;;;;31.02;17.96;101990.72;5113622;27;19918;-88
2022/05/19 09:35:45;;;;;;;;;;;;;;;31.57;17.33;101983.84;5125769;27;19919;-88
2022/05/19 09:38:17;;;;;;;;;;;;;;;31.82;17.25;101974.81;5131105;27;19927;-87
2022/05/19 09:40:46;;;;;;;;;;;;;;;32.41;16.86;101981.91;5124263;27;19923;-89
2022/05/19 09:43:17;;;;;;;;;;;;;;;33.33;15.92;101970.75;5102336;27;19924;-88
2022/05/19 09:45:45;;;;;;;;;;;;;;;33.39;15.85;101975.22;5126206;27;19916;-89
2022/05/19 09:48:11;;;;;;;;;;;;;;;34.93;14.62;101979.88;5132915;27;19999;-89
2022/05/19 09:50:46;;;;;;;;;;;;;;;33.25;16.08;101968.56;5125190;27;19916;-88
2022/05/19 09:53:15;;;;;;;;;;;;;;;33.81;15.33;101982.31;5116678;27;19987;-88
2022/05/19 09:55:41;;;;;;;;;;;;;;;33.91;15.00;101969.44;5123014;27;19919;-89
2022/05/19 09:58:09;;;;;;;;;;;;;;;34.13;15.13;101972.66;5101606;27;19916;-88
2022/05/19 10:00:36;;;;;;;;;;;;;;;33.84;15.23;101970.59;5132267;27;20326;-89
2022/05/19 10:03:17;;;;;;;;;;;;;;;33.76;14.37;101971.19;5112312;27;19927;-89
2022/05/19 10:05:42;;;;;;;;;;;;;;;33.53;14.60;101957.84;5117084;27;20355;-89
2022/05/19 10:08:20;;;;;;;;;;;;;;;34.17;14.68;101948.66;5116158;27;19945;-89
2022/05/19 10:10:54;;;;;;;;;;;;;;;34.45;14.53;101957.38;5127048;28;19915;-88
2022/05/19 10:13:21;;;;;;;;;;;;;;;32.27;16.77;101959.38;5119577;27;19924;-87
2022/05/19 10:15:59;;;;;;;;;;;;;;;30.25;18.57;101951.13;5111859;28;19904;-89
2022/05/19 10:18:36;;;;;;;;;;;;;;;28.87;20.15;101958.47;5122584;27;19965;-88
2022/05/19 10:21:07;;;;;;;;;;;;;;;29.19;20.23;101964.22;5128284;28;19943;-88
2022/05/19 10:23:38;;;;;;;;;;;;;;;30.18;18.83;101967.13;5125460;27;20374;-89
2022/05/19 10:26:22;;;;;;;;;;;;;;;31.07;17.81;101965.75;5138307;27;19923;-88
2022/05/19 10:31:50;;;;;;;;;;;;;;;31.26;17.39;101950.31;5119987;28;19937;-88
2022/05/19 10:34:36;;;;;;;;;;;;;;;32.68;16.72;101953.00;5119993;27;19923;-88
2022/05/19 10:37:20;;;;;;;;;;;;;;;32.52;15.68;101947.47;5092036;28;19916;-88
2022/05/19 10:39:50;;;;;;;;;;;;;;;30.34;18.11;101937.66;5124287;27;19920;-88
2022/05/19 10:42:28;;;;;;;;;;;;;;;29.72;19.19;101939.75;5112592;28;20419;-88
2022/05/19 10:44:53;;;;;;;;;;;;;;;27.89;21.17;101939.25;5119967;27;20022;-88
2022/05/19 10:47:27;;;;;;;;;;;;;;;26.72;22.25;101941.03;5135783;27;20019;-87
2022/05/19 10:50:11;;;;;;;;;;;;;;;27.67;21.00;101939.03;5120453;27;19930;-88
2022/05/19 10:52:39;;;;;;;;;;;;;;;28.23;20.18;101936.56;5132862;27;19915;-90
2022/05/19 10:55:11;;;;;;;;;;;;;;;28.25;20.90;101934.41;5117947;27;19916;-86
2022/05/19 10:57:56;;;;;;;;;;;;;;;28.27;20.56;101935.00;5130466;27;19958;-88
2022/05/19 11:00:22;;;;;;;;;;;;;;;27.99;20.78;101935.84;5118355;27;19915;-89
2022/05/19 11:02:54;;;;;;;;;;;;;;;27.36;21.55;101943.09;5114742;28;19920;-88
2022/05/19 11:05:32;;;;;;;;;;;;;;;27.06;21.56;101927.47;5125189;27;19926;-88
2022/05/19 11:08:01;;;;;;;;;;;;;;;26.38;23.28;101936.25;5142247;27;19927;-88
2022/05/19 11:10:42;;;;;;;;;;;;;;;26.30;23.25;101935.50;5131201;27;19975;-88
2022/05/19 11:13:22;;;;;;;;;;;;;;;25.83;23.66;101934.47;5130146;28;19946;-88
2022/05/19 11:15:49;;;;;;;;;;;;;;;26.08;23.79;101932.44;5126749;28;19916;-89
2022/05/19 11:18:18;;;;;;;;;;;;;;;25.72;23.82;101927.81;5129155;28;19941;-87
2022/05/19 11:20:55;;;;;;;;;;;;;;;26.60;23.04;101920.88;5117330;27;19979;-87
2022/05/19 11:23:44;;;;;;;;;;;;;;;26.47;22.92;101907.25;5129821;28;20307;-87
2022/05/19 11:26:24;;;;;;;;;;;;;;;26.65;22.86;101909.97;5091882;28;20016;-90
2022/05/19 11:29:08;;;;;;;;;;;;;;;26.79;22.57;101909.72;5109571;28;20029;-88
2022/05/19 11:31:41;;;;;;;;;;;;;;;27.11;22.59;101911.03;5114115;28;19916;-86
2022/05/19 11:34:14;;;;;;;;;;;;;;;27.39;21.69;101903.09;5126045;28;19942;-86
2022/05/19 11:37:04;;;;;;;;;;;;;;;27.35;21.53;101902.75;5132707;28;20359;-87
2022/05/19 11:39:35;;;;;;;;;;;;;;;27.10;22.05;101906.59;5115533;28;19941;-89
2022/05/19 11:42:10;;;;;;;;;;;;;;;26.81;21.91;101897.38;5137105;27;19915;-85
2022/05/19 11:44:38;;;;;;;;;;;;;;;26.90;22.58;101906.13;5124518;28;20087;-86
2022/05/19 11:47:07;;;;;;;;;;;;;;;27.23;21.81;101904.69;5093327;28;19959;-85
2022/05/19 11:55:17;;;;;;;;;;;;;;;25.43;23.77;101901.91;5111498;28;19950;-86
2022/05/19 11:58:04;;;;;;;;;;;;;;;25.39;24.43;101889.69;5114011;28;20375;-87
2022/05/19 12:00:36;;;;;;;;;;;;;;;25.88;25.26;101893.31;5098705;28;19920;-90
2022/05/19 12:03:06;;;;;;;;;;;;;;;25.60;24.65;101891.13;5098623;28;19967;-88
2022/05/19 12:05:38;;;;;;;;;;;;;;;25.83;24.02;101891.22;5091522;28;19920;-88
2022/05/19 12:08:12;;;;;;;;;;;;;;;25.84;23.62;101881.03;5102738;28;19920;-86
2022/05/19 12:10:39;;;;;;;;;;;;;;;25.57;23.96;101877.81;5126820;28;19923;-87
2022/05/19 12:13:06;;;;;;;;;;;;;;;25.68;23.92;101866.00;5126794;28;19923;-88
2022/05/19 12:15:37;;;;;;;;;;;;;;;25.86;24.17;101874.25;5122088;28;19959;-87
2022/05/19 12:18:32;;;;;;;;;;;;;;;25.61;23.41;101865.25;5119325;28;19986;-86
2022/05/19 12:21:03;;;;;;;;;;;;;;;25.00;24.56;101870.59;5128947;28;19947;-85
2022/05/19 12:23:38;;;;;;;;;;;;;;;24.80;24.12;101865.31;5128625;27;19907;-86
2022/05/19 12:26:13;;;;;;;;;;;;;;;24.45;24.31;101862.22;5099252;28;20405;-86
2022/05/19 12:28:40;;;;;;;;;;;;;;;24.25;24.91;101862.38;5118765;27;19916;-85
2022/05/19 12:34:00;;;;;;;;;;;;;;;24.60;27.01;101859.97;5128236;27;19930;-85
2022/05/19 12:36:32;;;;;;;;;;;;;;;24.39;25.90;101854.84;5115628;27;19977;-88
2022/05/19 12:39:28;;;;;;;;;;;;;;;24.33;25.22;101848.38;5116145;27;19920;-89
2022/05/19 12:41:54;;;;;;;;;;;;;;;24.31;24.23;101857.91;5107313;28;19920;-85
2022/05/19 12:44:51;;;;;;;;;;;;;;;24.44;24.71;101838.53;5116081;27;19958;-87
2022/05/19 12:47:22;;;;;;;;;;;;;;;23.56;25.47;101840.16;5108221;27;19916;-86
2022/05/19 12:50:08;;;;;;;;;;;;;;;23.41;25.50;101844.25;5117219;27;19942;-85
2022/05/19 12:52:53;;;;;;;;;;;;;;;23.49;25.68;101841.28;5103772;28;19919;-90
2022/05/19 12:55:28;;;;;;;;;;;;;;;23.64;25.95;101840.97;5127714;27;19919;-88
2022/05/19 12:57:54;;;;;;;;;;;;;;;23.44;26.07;101827.38;5136874;27;19963;-86
2022/05/19 13:00:41;;;;;;;;;;;;;;;23.14;26.34;101830.63;5125292;27;19928;-87
2022/05/19 13:03:17;;;;;;;;;;;;;;;22.91;27.32;101842.91;5111507;27;20383;-89
2022/05/19 13:05:43;;;;;;;;;;;;;;;23.02;27.09;101832.38;5101281;27;19922;-86
2022/05/19 13:08:14;;;;;;;;;;;;;;;22.97;27.43;101822.84;5103705;27;20365;-87